Time;durP1;ratioP1;P1;durP2;ratioP2;P2;SDS_P1;SDS_P2;PMS_P1;PMS_P2;Temp;Humidity;BMP_temperature;BMP_pressure;BME280_temperature;BME280_humidity;BME280_pressure;Samples;Min_cycle;Max_cycle;Signal;HPM_P1;HPM_P2
2022/07/25 00:01:02;;;;;;;8.75;6.47;;;;;;;;;;5121271;28;20442;-74
2022/07/25 00:03:28;;;;;;;9.13;6.03;;;;;;;;;;5120618;28;20042;-72
2022/07/25 00:05:53;;;;;;;8.57;6.22;;;;;;;;;;5114415;28;20032;-73
2022/07/25 00:08:18;;;;;;;7.40;5.80;;;;;;;;;;5102640;28;20092;-73
2022/07/25 00:10:44;;;;;;;7.82;5.85;;;;;;;;;;5120740;28;20388;-73
2022/07/25 00:13:09;;;;;;;9.93;6.10;;;;;;;;;;5120956;28;20047;-73
2022/07/25 00:15:35;;;;;;;8.45;5.95;;;;;;;;;;5120936;28;20031;-73
2022/07/25 00:18:00;;;;;;;8.13;5.90;;;;;;;;;;5120890;28;20323;-73
2022/07/25 00:20:26;;;;;;;7.80;5.70;;;;;;;;;;5121041;28;20020;-72
2022/07/25 00:22:51;;;;;;;10.85;6.05;;;;;;;;;;5119406;28;20031;-73
2022/07/25 00:25:17;;;;;;;8.30;6.13;;;;;;;;;;5124516;28;20054;-73
2022/07/25 00:27:42;;;;;;;7.53;5.95;;;;;;;;;;5124935;28;20024;-73
2022/07/25 00:30:08;;;;;;;8.93;5.90;;;;;;;;;;5118154;28;20024;-73
2022/07/25 00:32:34;;;;;;;10.75;6.13;;;;;;;;;;5124409;28;20058;-73
2022/07/25 00:34:59;;;;;;;8.55;5.78;;;;;;;;;;5124844;28;20311;-73
2022/07/25 00:37:24;;;;;;;7.88;5.82;;;;;;;;;;5125045;28;20334;-73
2022/07/25 00:39:50;;;;;;;8.70;5.90;;;;;;;;;;5121169;28;20019;-73
2022/07/25 00:42:15;;;;;;;11.27;5.80;;;;;;;;;;5124554;28;20035;-73
2022/07/25 00:44:40;;;;;;;8.77;5.70;;;;;;;;;;5124573;28;20032;-73
2022/07/25 00:47:06;;;;;;;8.32;5.70;;;;;;;;;;5124713;28;20046;-73
2022/07/25 00:49:31;;;;;;;8.07;5.70;;;;;;;;;;5124455;28;20047;-73
2022/07/25 00:51:57;;;;;;;11.73;5.82;;;;;;;;;;5122263;28;20023;-73
2022/07/25 00:54:22;;;;;;;7.88;5.35;;;;;;;;;;5120188;28;20317;-73
2022/07/25 00:56:48;;;;;;;10.40;5.78;;;;;;;;;;5124206;28;20023;-73
2022/07/25 00:59:15;;;;;;;13.18;6.18;;;;;;;;;;5124646;28;20034;-73
2022/07/25 01:01:41;;;;;;;9.88;5.93;;;;;;;;;;5123906;28;20024;-73
2022/07/25 01:04:07;;;;;;;10.40;5.85;;;;;;;;;;5123749;28;20100;-73
2022/07/25 01:06:33;;;;;;;9.93;6.13;;;;;;;;;;5117682;28;20023;-73
2022/07/25 01:09:00;;;;;;;8.90;5.65;;;;;;;;;;5124009;28;20034;-73
2022/07/25 01:11:25;;;;;;;7.85;5.97;;;;;;;;;;5123650;28;20210;-73
2022/07/25 01:13:51;;;;;;;8.40;5.82;;;;;;;;;;5124013;28;20319;-73
2022/07/25 01:16:16;;;;;;;9.88;5.65;;;;;;;;;;5120912;28;20032;-73
2022/07/25 01:18:42;;;;;;;8.88;5.82;;;;;;;;;;5116578;28;20062;-73
2022/07/25 01:21:07;;;;;;;9.10;5.80;;;;;;;;;;5105761;28;20028;-72
2022/07/25 01:23:33;;;;;;;11.30;6.10;;;;;;;;;;5123718;28;20342;-73
2022/07/25 01:25:58;;;;;;;9.15;5.82;;;;;;;;;;5123641;28;20011;-73
2022/07/25 01:28:24;;;;;;;9.85;6.03;;;;;;;;;;5123743;28;20255;-73
2022/07/25 01:30:49;;;;;;;7.85;5.65;;;;;;;;;;5123684;28;20030;-73
2022/07/25 01:33:16;;;;;;;9.10;5.47;;;;;;;;;;5123204;28;20024;-73
2022/07/25 01:35:42;;;;;;;6.95;4.90;;;;;;;;;;5123523;28;20019;-72
2022/07/25 01:38:08;;;;;;;7.63;5.63;;;;;;;;;;5123169;28;20023;-73
2022/07/25 01:40:33;;;;;;;5.72;4.95;;;;;;;;;;5123224;28;20028;-73
2022/07/25 01:42:58;;;;;;;9.05;5.20;;;;;;;;;;5123540;28;20038;-73
2022/07/25 01:45:24;;;;;;;10.05;5.80;;;;;;;;;;5123252;28;20090;-73
2022/07/25 01:47:49;;;;;;;13.35;5.60;;;;;;;;;;5123026;28;20032;-73
2022/07/25 01:50:15;;;;;;;10.43;6.00;;;;;;;;;;5123317;28;20067;-73
2022/07/25 01:52:40;;;;;;;11.80;5.93;;;;;;;;;;5123369;28;20023;-73
2022/07/25 01:55:06;;;;;;;10.70;5.75;;;;;;;;;;5122889;28;20031;-73
2022/07/25 01:57:32;;;;;;;9.48;5.47;;;;;;;;;;5123291;28;20047;-73
2022/07/25 01:59:58;;;;;;;10.20;5.85;;;;;;;;;;5122807;28;20019;-73
2022/07/25 02:02:23;;;;;;;8.82;5.70;;;;;;;;;;5122879;28;20087;-73
2022/07/25 02:04:49;;;;;;;9.80;5.78;;;;;;;;;;5123253;28;20032;-73
2022/07/25 02:07:14;;;;;;;9.38;5.43;;;;;;;;;;5116579;28;20224;-73
2022/07/25 02:09:40;;;;;;;11.50;5.32;;;;;;;;;;5122342;28;20173;-73
2022/07/25 02:12:06;;;;;;;7.88;5.28;;;;;;;;;;5122891;28;20337;-73
2022/07/25 02:14:32;;;;;;;8.43;5.63;;;;;;;;;;5122434;28;20026;-72
2022/07/25 02:16:57;;;;;;;8.10;5.50;;;;;;;;;;5122762;28;20091;-73
2022/07/25 02:19:22;;;;;;;8.25;5.70;;;;;;;;;;5122623;28;20015;-73
2022/07/25 02:21:48;;;;;;;9.18;5.18;;;;;;;;;;5122665;28;20035;-73
2022/07/25 02:24:13;;;;;;;9.30;5.90;;;;;;;;;;5122109;28;20060;-73
2022/07/25 02:26:38;;;;;;;9.05;5.50;;;;;;;;;;5100367;28;20020;-73
2022/07/25 02:29:04;;;;;;;8.48;5.60;;;;;;;;;;5112682;28;20300;-73
2022/07/25 02:31:29;;;;;;;7.13;5.43;;;;;;;;;;5122189;28;20216;-73
2022/07/25 02:33:54;;;;;;;7.47;5.32;;;;;;;;;;5122436;28;20031;-73
2022/07/25 02:36:19;;;;;;;6.57;5.13;;;;;;;;;;5122548;28;20095;-73
2022/07/25 02:38:45;;;;;;;10.00;5.60;;;;;;;;;;5121894;28;20020;-73
2022/07/25 02:41:11;;;;;;;7.90;5.50;;;;;;;;;;5122338;28;20030;-73
2022/07/25 02:43:36;;;;;;;10.27;5.47;;;;;;;;;;5121481;28;20028;-73
2022/07/25 02:46:02;;;;;;;12.80;5.75;;;;;;;;;;5121776;28;20019;-73
2022/07/25 02:48:27;;;;;;;9.48;5.43;;;;;;;;;;5121790;28;20509;-73
2022/07/25 02:50:52;;;;;;;10.18;6.00;;;;;;;;;;5122555;28;20027;-73
2022/07/25 02:53:18;;;;;;;13.30;5.45;;;;;;;;;;5121758;28;20024;-73
2022/07/25 02:55:43;;;;;;;7.78;5.05;;;;;;;;;;5122125;28;20043;-73
2022/07/25 02:58:08;;;;;;;6.95;4.93;;;;;;;;;;5121787;28;20124;-73
2022/07/25 03:00:34;;;;;;;7.32;4.82;;;;;;;;;;5121571;28;20021;-73
2022/07/25 03:02:59;;;;;;;5.63;4.53;;;;;;;;;;5122176;28;20065;-74
2022/07/25 03:05:25;;;;;;;7.10;4.78;;;;;;;;;;5121771;28;20145;-73
2022/07/25 03:07:50;;;;;;;6.03;4.80;;;;;;;;;;5121474;28;20015;-73
2022/07/25 03:10:15;;;;;;;8.23;4.70;;;;;;;;;;5121617;28;20020;-73
2022/07/25 03:12:43;;;;;;;7.28;4.55;;;;;;;;;;5121545;28;20079;-73
2022/07/25 03:15:10;;;;;;;6.68;4.70;;;;;;;;;;5121593;28;20266;-73
2022/07/25 03:17:36;;;;;;;7.93;4.88;;;;;;;;;;5121594;28;20300;-73
2022/07/25 03:20:02;;;;;;;7.82;4.57;;;;;;;;;;5121526;28;20065;-73
2022/07/25 03:22:27;;;;;;;7.63;4.50;;;;;;;;;;5121471;28;20223;-73
2022/07/25 03:24:52;;;;;;;8.68;4.30;;;;;;;;;;5121087;28;20027;-73
2022/07/25 03:27:18;;;;;;;7.60;4.35;;;;;;;;;;5121533;28;20027;-73
2022/07/25 03:29:44;;;;;;;5.82;4.25;;;;;;;;;;5121341;28;20023;-73
2022/07/25 03:32:10;;;;;;;6.88;4.30;;;;;;;;;;5121295;28;20031;-74
2022/07/25 03:34:35;;;;;;;9.10;4.13;;;;;;;;;;5121352;28;20115;-73
2022/07/25 03:37:01;;;;;;;5.90;4.18;;;;;;;;;;5121324;28;20030;-73
2022/07/25 03:39:27;;;;;;;6.53;4.18;;;;;;;;;;5120702;28;20024;-73
2022/07/25 03:41:54;;;;;;;7.50;4.07;;;;;;;;;;5121110;28;20031;-73
2022/07/25 03:44:20;;;;;;;12.68;4.07;;;;;;;;;;5121255;28;20050;-73
2022/07/25 03:46:46;;;;;;;6.22;4.00;;;;;;;;;;5121025;28;20082;-73
2022/07/25 03:49:11;;;;;;;7.53;3.78;;;;;;;;;;5121220;28;20027;-73
2022/07/25 03:51:37;;;;;;;7.93;3.97;;;;;;;;;;5121201;28;20262;-73
2022/07/25 03:54:02;;;;;;;6.25;3.30;;;;;;;;;;5120364;28;20019;-73
2022/07/25 03:56:48;;;;;;;4.93;3.03;;;;;;;;;;5126688;28;20027;-73
2022/07/25 03:59:18;;;;;;;6.78;2.72;;;;;;;;;;5116053;28;20032;-73
2022/07/25 04:01:46;;;;;;;5.20;2.60;;;;;;;;;;5127845;28;20028;-73
2022/07/25 04:04:11;;;;;;;5.53;2.17;;;;;;;;;;5126478;28;20054;-72
2022/07/25 04:06:38;;;;;;;3.00;2.10;;;;;;;;;;5116364;28;20324;-73
2022/07/25 04:09:04;;;;;;;3.30;1.85;;;;;;;;;;5127434;28;20026;-73
2022/07/25 04:11:29;;;;;;;5.47;2.20;;;;;;;;;;5127786;28;20319;-73
2022/07/25 04:13:56;;;;;;;3.88;1.88;;;;;;;;;;5127718;28;20056;-73
2022/07/25 04:16:21;;;;;;;3.78;1.90;;;;;;;;;;5125225;28;20077;-73
2022/07/25 04:18:47;;;;;;;2.85;1.75;;;;;;;;;;5121318;28;20028;-73
2022/07/25 04:21:12;;;;;;;4.60;1.63;;;;;;;;;;5126459;28;20068;-73
2022/07/25 04:23:38;;;;;;;6.28;1.77;;;;;;;;;;5126699;28;20230;-73
2022/07/25 04:26:03;;;;;;;4.15;1.60;;;;;;;;;;5127968;28;20024;-73
2022/07/25 04:28:29;;;;;;;6.10;1.80;;;;;;;;;;5127399;28;20026;-72
2022/07/25 04:30:55;;;;;;;2.58;1.50;;;;;;;;;;5127535;28;20023;-74
2022/07/25 04:33:21;;;;;;;2.60;1.50;;;;;;;;;;5127781;28;20015;-73
2022/07/25 04:35:46;;;;;;;5.10;1.70;;;;;;;;;;5127603;28;20047;-73
2022/07/25 04:38:11;;;;;;;4.05;1.58;;;;;;;;;;5127223;28;20023;-73
2022/07/25 04:40:37;;;;;;;2.38;1.58;;;;;;;;;;5127474;28;20030;-73
2022/07/25 04:43:03;;;;;;;3.33;1.30;;;;;;;;;;5127833;28;20034;-73
2022/07/25 04:45:29;;;;;;;3.15;1.70;;;;;;;;;;5127229;28;20328;-73
2022/07/25 04:47:54;;;;;;;2.75;1.60;;;;;;;;;;5127971;28;20125;-72
2022/07/25 04:50:19;;;;;;;4.55;1.60;;;;;;;;;;5127008;28;20042;-73
2022/07/25 04:52:45;;;;;;;3.78;1.70;;;;;;;;;;5126784;28;20039;-73
2022/07/25 04:55:11;;;;;;;3.22;1.70;;;;;;;;;;5127408;28;20065;-73
2022/07/25 04:57:36;;;;;;;9.52;1.80;;;;;;;;;;5127596;28;20035;-73
2022/07/25 05:00:07;;;;;;;4.72;1.63;;;;;;;;;;5127069;28;20051;-73
2022/07/25 05:02:32;;;;;;;4.60;1.52;;;;;;;;;;5127140;28;20030;-73
2022/07/25 05:04:58;;;;;;;4.32;1.63;;;;;;;;;;5120561;28;20020;-73
2022/07/25 05:07:23;;;;;;;3.83;1.58;;;;;;;;;;5124578;28;20031;-73
2022/07/25 05:09:48;;;;;;;3.83;1.60;;;;;;;;;;5123863;28;20027;-73
2022/07/25 05:12:14;;;;;;;5.07;1.50;;;;;;;;;;5124149;28;20036;-73
2022/07/25 05:14:39;;;;;;;8.70;1.77;;;;;;;;;;5123712;28;20307;-73
2022/07/25 05:17:05;;;;;;;7.05;1.65;;;;;;;;;;5124182;28;20216;-73
2022/07/25 05:19:30;;;;;;;7.90;1.77;;;;;;;;;;5123476;28;20027;-73
2022/07/25 05:21:56;;;;;;;5.35;1.60;;;;;;;;;;5123572;28;20221;-73
2022/07/25 05:24:22;;;;;;;4.00;1.50;;;;;;;;;;5123638;28;20028;-73
2022/07/25 05:26:48;;;;;;;4.88;1.45;;;;;;;;;;5092765;28;20043;-73
2022/07/25 05:29:14;;;;;;;10.60;1.85;;;;;;;;;;5121812;28;20024;-73
2022/07/25 05:31:39;;;;;;;8.95;1.90;;;;;;;;;;5123556;28;20019;-73
2022/07/25 05:34:05;;;;;;;8.40;1.80;;;;;;;;;;5123635;28;20085;-73
2022/07/25 05:36:30;;;;;;;11.35;1.80;;;;;;;;;;5123385;28;20055;-73
2022/07/25 05:38:56;;;;;;;9.45;2.03;;;;;;;;;;5123316;28;20163;-73
2022/07/25 05:41:21;;;;;;;9.65;1.77;;;;;;;;;;5123518;28;20319;-73
2022/07/25 05:43:47;;;;;;;5.93;1.80;;;;;;;;;;5123071;28;20050;-73
2022/07/25 05:46:14;;;;;;;8.35;2.03;;;;;;;;;;5123658;28;20094;-72
2022/07/25 05:48:40;;;;;;;7.53;1.70;;;;;;;;;;5123031;28;20087;-73
2022/07/25 05:51:05;;;;;;;10.35;1.80;;;;;;;;;;5123378;28;20019;-72
2022/07/25 05:53:31;;;;;;;8.82;1.67;;;;;;;;;;5122866;28;20039;-74
2022/07/25 05:55:57;;;;;;;8.63;1.77;;;;;;;;;;5123230;28;20276;-73
2022/07/25 05:58:22;;;;;;;11.38;2.25;;;;;;;;;;5122178;28;20296;-73
2022/07/25 06:00:49;;;;;;;7.15;1.98;;;;;;;;;;5123105;28;20032;-73
2022/07/25 06:03:15;;;;;;;8.13;1.98;;;;;;;;;;5114573;28;20023;-72
2022/07/25 06:05:40;;;;;;;4.82;1.85;;;;;;;;;;5116200;28;20160;-73
2022/07/25 06:08:05;;;;;;;6.18;1.63;;;;;;;;;;5115836;28;20015;-73
2022/07/25 06:10:31;;;;;;;5.35;1.70;;;;;;;;;;5122878;28;20027;-73
2022/07/25 06:12:56;;;;;;;4.57;1.80;;;;;;;;;;5122676;28;20077;-72
2022/07/25 06:15:22;;;;;;;8.48;1.63;;;;;;;;;;5122619;28;20024;-72
2022/07/25 06:17:47;;;;;;;6.03;1.83;;;;;;;;;;5122516;28;20028;-72
2022/07/25 06:20:12;;;;;;;4.13;1.67;;;;;;;;;;5121348;28;20046;-72
2022/07/25 06:22:39;;;;;;;8.02;1.70;;;;;;;;;;5122321;28;20031;-74
2022/07/25 06:25:05;;;;;;;7.60;1.70;;;;;;;;;;5122634;28;20023;-72
2022/07/25 06:27:30;;;;;;;5.68;2.00;;;;;;;;;;5122254;28;20045;-72
2022/07/25 06:29:56;;;;;;;4.43;1.60;;;;;;;;;;5119141;28;20051;-72
2022/07/25 06:32:21;;;;;;;7.57;1.60;;;;;;;;;;5118777;28;20040;-72
2022/07/25 06:34:47;;;;;;;9.65;1.65;;;;;;;;;;5122093;28;20356;-73
2022/07/25 06:37:12;;;;;;;7.20;1.60;;;;;;;;;;5097052;28;20136;-72
2022/07/25 06:39:38;;;;;;;6.28;1.63;;;;;;;;;;5117711;28;20031;-73
2022/07/25 06:42:03;;;;;;;5.82;1.80;;;;;;;;;;5122199;28;20031;-74
2022/07/25 06:44:33;;;;;;;5.88;2.00;;;;;;;;;;5122005;28;20331;-72
2022/07/25 06:47:00;;;;;;;6.57;1.58;;;;;;;;;;5121990;28;20057;-72
2022/07/25 06:49:25;;;;;;;5.28;1.60;;;;;;;;;;5116987;28;20040;-72
2022/07/25 06:51:50;;;;;;;7.03;1.60;;;;;;;;;;5122240;28;20045;-73
2022/07/25 06:54:17;;;;;;;5.97;1.70;;;;;;;;;;5121398;28;20320;-72
2022/07/25 06:56:43;;;;;;;7.68;1.75;;;;;;;;;;5115536;28;20024;-73
2022/07/25 06:59:08;;;;;;;4.82;1.50;;;;;;;;;;5122099;28;20258;-73
2022/07/25 07:01:33;;;;;;;7.40;1.95;;;;;;;;;;5121863;28;20029;-73
2022/07/25 07:03:59;;;;;;;6.88;2.30;;;;;;;;;;5121709;28;20023;-72
2022/07/25 07:06:24;;;;;;;7.90;2.05;;;;;;;;;;5114688;28;20019;-74
2022/07/25 07:08:49;;;;;;;3.28;1.60;;;;;;;;;;5121637;28;20019;-72
2022/07/25 07:11:15;;;;;;;4.85;1.80;;;;;;;;;;5121952;28;20087;-73
2022/07/25 07:13:41;;;;;;;6.38;2.00;;;;;;;;;;5102693;28;20027;-74
2022/07/25 07:16:06;;;;;;;5.80;1.58;;;;;;;;;;5121787;28;20068;-73
2022/07/25 07:18:32;;;;;;;6.28;1.70;;;;;;;;;;5121498;28;20032;-73
2022/07/25 07:20:57;;;;;;;4.93;1.80;;;;;;;;;;5121218;28;20043;-73
2022/07/25 07:23:23;;;;;;;4.40;1.65;;;;;;;;;;5121002;28;20216;-73
2022/07/25 07:25:48;;;;;;;8.15;1.73;;;;;;;;;;5121621;28;20057;-73
2022/07/25 07:28:14;;;;;;;4.57;1.70;;;;;;;;;;5121077;28;20050;-73
2022/07/25 07:30:40;;;;;;;3.65;1.70;;;;;;;;;;5120767;28;20024;-74
2022/07/25 07:33:05;;;;;;;5.47;1.70;;;;;;;;;;5114820;28;20096;-74
2022/07/25 07:35:30;;;;;;;6.38;1.70;;;;;;;;;;5121331;28;20035;-73
2022/07/25 07:37:56;;;;;;;5.78;1.60;;;;;;;;;;5121217;28;20024;-73
2022/07/25 07:40:22;;;;;;;6.70;1.70;;;;;;;;;;5121164;28;20023;-73
2022/07/25 07:42:49;;;;;;;11.10;2.15;;;;;;;;;;5120904;28;20027;-74
2022/07/25 07:45:17;;;;;;;5.47;1.63;;;;;;;;;;5121089;28;20316;-73
2022/07/25 07:47:46;;;;;;;9.00;1.75;;;;;;;;;;5121455;28;20030;-73
2022/07/25 07:50:13;;;;;;;6.22;1.67;;;;;;;;;;5120842;28;20044;-73
2022/07/25 07:52:38;;;;;;;9.38;2.00;;;;;;;;;;5120992;28;20357;-73
2022/07/25 07:57:48;;;;;;;4.93;1.70;;;;;;;;;;5110506;28;20139;-73
2022/07/25 08:00:15;;;;;;;7.10;1.63;;;;;;;;;;5120799;28;20284;-73
2022/07/25 08:02:49;;;;;;;6.20;1.63;;;;;;;;;;5120936;28;20023;-74
2022/07/25 08:05:30;;;;;;;6.18;1.75;;;;;;;;;;5114208;28;20315;-74
2022/07/25 08:07:57;;;;;;;2.55;1.60;;;;;;;;;;5114393;28;20319;-73
2022/07/25 08:10:25;;;;;;;7.65;1.65;;;;;;;;;;5120806;28;20049;-73
2022/07/25 08:12:50;;;;;;;5.78;1.77;;;;;;;;;;5120437;28;20027;-73
2022/07/25 08:15:17;;;;;;;6.50;1.65;;;;;;;;;;5120949;28;20066;-73
2022/07/25 08:17:44;;;;;;;8.65;1.95;;;;;;;;;;5121250;28;20024;-72
2022/07/25 08:20:10;;;;;;;3.67;1.83;;;;;;;;;;5120642;28;20295;-73
2022/07/25 08:22:37;;;;;;;5.70;1.65;;;;;;;;;;5120708;28;20044;-73
2022/07/25 08:25:02;;;;;;;3.10;1.50;;;;;;;;;;5120587;28;20035;-73
2022/07/25 08:27:28;;;;;;;6.55;2.00;;;;;;;;;;5120934;28;20028;-73
2022/07/25 08:29:53;;;;;;;7.78;1.63;;;;;;;;;;5120694;28;20043;-73
2022/07/25 08:32:18;;;;;;;4.57;1.60;;;;;;;;;;5095857;28;20024;-73
2022/07/25 08:34:44;;;;;;;4.85;1.70;;;;;;;;;;5120520;28;20475;-73
2022/07/25 08:37:09;;;;;;;3.95;1.75;;;;;;;;;;5120639;28;20352;-73
2022/07/25 08:39:34;;;;;;;9.43;1.90;;;;;;;;;;5120428;28;20215;-73
2022/07/25 08:42:03;;;;;;;3.95;1.50;;;;;;;;;;5120561;28;20305;-73
2022/07/25 08:44:36;;;;;;;4.53;1.60;;;;;;;;;;5124624;28;20022;-73
2022/07/25 08:47:02;;;;;;;4.03;1.73;;;;;;;;;;5124714;28;20035;-73
2022/07/25 08:49:27;;;;;;;3.97;1.70;;;;;;;;;;5124274;28;20031;-73
2022/07/25 08:51:55;;;;;;;3.63;1.70;;;;;;;;;;5124199;28;20234;-73
2022/07/25 08:54:23;;;;;;;3.88;1.83;;;;;;;;;;5124143;28;20039;-73
2022/07/25 08:56:48;;;;;;;3.78;1.65;;;;;;;;;;5124017;28;20028;-73
2022/07/25 08:59:13;;;;;;;2.83;1.50;;;;;;;;;;5124536;28;20051;-73
2022/07/25 09:01:40;;;;;;;5.80;1.40;;;;;;;;;;5124475;28;20207;-73
2022/07/25 09:04:07;;;;;;;3.80;1.73;;;;;;;;;;5113279;28;20028;-73
2022/07/25 09:06:32;;;;;;;4.13;1.55;;;;;;;;;;5117349;28;20027;-73
2022/07/25 09:08:59;;;;;;;3.67;1.40;;;;;;;;;;5123830;28;20082;-73
2022/07/25 09:11:35;;;;;;;2.53;1.40;;;;;;;;;;5123549;28;20015;-73
2022/07/25 09:14:12;;;;;;;7.20;1.75;;;;;;;;;;5110052;28;20020;-74
2022/07/25 09:16:43;;;;;;;4.38;1.52;;;;;;;;;;5124046;28;20315;-73
2022/07/25 09:19:16;;;;;;;4.30;1.60;;;;;;;;;;5123572;28;20035;-73
2022/07/25 09:21:43;;;;;;;4.68;1.48;;;;;;;;;;5105377;28;20183;-73
2022/07/25 09:24:10;;;;;;;3.20;1.35;;;;;;;;;;5123951;28;20028;-73
2022/07/25 09:26:50;;;;;;;3.53;1.38;;;;;;;;;;5123403;28;20057;-73
2022/07/25 09:29:31;;;;;;;5.47;1.40;;;;;;;;;;5123649;28;20028;-73
2022/07/25 09:31:58;;;;;;;4.65;1.60;;;;;;;;;;5118209;28;20030;-73
2022/07/25 09:34:41;;;;;;;4.95;1.67;;;;;;;;;;5122851;28;20042;-73
2022/07/25 09:37:11;;;;;;;5.57;1.60;;;;;;;;;;5111969;28;20083;-74
2022/07/25 09:39:45;;;;;;;5.22;1.80;;;;;;;;;;5123420;28;20028;-73
2022/07/25 09:42:25;;;;;;;6.38;1.60;;;;;;;;;;5112064;28;20054;-73
2022/07/25 09:45:01;;;;;;;4.53;1.40;;;;;;;;;;5123626;28;20100;-73
2022/07/25 09:47:27;;;;;;;2.67;1.40;;;;;;;;;;5115362;28;20023;-73
2022/07/25 09:49:53;;;;;;;5.72;1.50;;;;;;;;;;5123257;28;20248;-74
2022/07/25 09:52:18;;;;;;;2.40;1.50;;;;;;;;;;5123289;28;20039;-73
2022/07/25 09:54:43;;;;;;;4.80;1.42;;;;;;;;;;5122423;28;20024;-73
2022/07/25 09:57:09;;;;;;;3.42;1.55;;;;;;;;;;5120026;28;20383;-73
2022/07/25 09:59:35;;;;;;;6.63;1.48;;;;;;;;;;5101821;28;20030;-73
2022/07/25 10:02:31;;;;;;;2.10;1.30;;;;;;;;;;5122870;28;20024;-73
2022/07/25 10:05:12;;;;;;;5.13;1.63;;;;;;;;;;5108310;28;20304;-73
2022/07/25 10:07:40;;;;;;;6.25;2.30;;;;;;;;;;5117593;28;20028;-73
2022/07/25 10:10:05;;;;;;;3.30;1.52;;;;;;;;;;5117732;28;20015;-73
2022/07/25 10:12:31;;;;;;;5.15;1.48;;;;;;;;;;5123184;28;20019;-73
2022/07/25 10:15:04;;;;;;;4.25;1.50;;;;;;;;;;5122639;28;20046;-73
2022/07/25 10:17:29;;;;;;;4.53;1.50;;;;;;;;;;5122620;28;20173;-73
2022/07/25 10:19:55;;;;;;;4.20;1.35;;;;;;;;;;5122626;28;20011;-74
2022/07/25 10:22:20;;;;;;;6.32;1.70;;;;;;;;;;5122549;28;20023;-73
2022/07/25 10:24:46;;;;;;;1.73;1.23;;;;;;;;;;5122046;28;20212;-73
2022/07/25 10:27:22;;;;;;;4.10;1.50;;;;;;;;;;5122884;28;20076;-73
2022/07/25 10:29:51;;;;;;;5.72;1.65;;;;;;;;;;5122458;28;20312;-73
2022/07/25 10:32:17;;;;;;;2.80;1.42;;;;;;;;;;5122297;28;20062;-73
2022/07/25 10:34:51;;;;;;;3.55;1.40;;;;;;;;;;5122477;28;20023;-73
2022/07/25 10:37:17;;;;;;;5.30;1.90;;;;;;;;;;5122752;28;20020;-73
2022/07/25 10:39:44;;;;;;;2.75;1.65;;;;;;;;;;5121855;28;20398;-73
2022/07/25 10:42:15;;;;;;;5.30;1.65;;;;;;;;;;5122120;28;20028;-73
2022/07/25 10:44:43;;;;;;;2.50;1.42;;;;;;;;;;5122336;28;20035;-74
2022/07/25 10:47:10;;;;;;;2.83;1.65;;;;;;;;;;5122019;28;20406;-73
2022/07/25 10:49:41;;;;;;;3.17;1.40;;;;;;;;;;5119867;28;20106;-73
2022/07/25 10:52:16;;;;;;;4.43;1.38;;;;;;;;;;5103922;28;20229;-73
2022/07/25 10:54:52;;;;;;;2.28;1.40;;;;;;;;;;5121431;28;20031;-73
2022/07/25 10:57:18;;;;;;;7.80;4.65;;;;;;;;;;5118012;28;20222;-73
2022/07/25 10:59:43;;;;;;;6.97;4.88;;;;;;;;;;5120107;28;20218;-73
2022/07/25 11:02:15;;;;;;;4.05;1.40;;;;;;;;;;5121346;28;20092;-73
2022/07/25 11:04:42;;;;;;;3.63;1.33;;;;;;;;;;5116990;28;20024;-74
2022/07/25 11:07:12;;;;;;;4.47;2.40;;;;;;;;;;5119526;28;20054;-73
2022/07/25 11:09:39;;;;;;;2.65;1.80;;;;;;;;;;5114997;28;20223;-73
2022/07/25 11:12:05;;;;;;;5.72;2.80;;;;;;;;;;5121725;28;20024;-73
2022/07/25 11:14:38;;;;;;;4.70;1.70;;;;;;;;;;5121546;28;20086;-74
2022/07/25 11:17:13;;;;;;;4.72;1.90;;;;;;;;;;5121531;28;20035;-74
2022/07/25 11:19:43;;;;;;;5.03;2.70;;;;;;;;;;5121409;28;20027;-73
2022/07/25 11:22:09;;;;;;;4.68;1.67;;;;;;;;;;5121588;28;20043;-74
2022/07/25 11:24:42;;;;;;;11.30;3.25;;;;;;;;;;5102770;28;20023;-73
2022/07/25 11:27:09;;;;;;;3.67;1.40;;;;;;;;;;5121643;28;20019;-73
2022/07/25 11:29:36;;;;;;;2.90;1.30;;;;;;;;;;5121182;28;20131;-73
2022/07/25 11:32:07;;;;;;;2.92;1.25;;;;;;;;;;5121206;28;20027;-73
2022/07/25 11:34:36;;;;;;;12.02;6.03;;;;;;;;;;5115224;28;20019;-72
2022/07/25 11:37:04;;;;;;;5.93;2.40;;;;;;;;;;5121383;28;20011;-73
2022/07/25 11:39:32;;;;;;;4.60;1.50;;;;;;;;;;5119523;28;20268;-73
2022/07/25 11:42:06;;;;;;;2.50;1.20;;;;;;;;;;5121293;28;20069;-73
2022/07/25 11:44:32;;;;;;;1.98;1.27;;;;;;;;;;5094466;28;20286;-73
2022/07/25 11:46:58;;;;;;;2.83;1.40;;;;;;;;;;5120987;28;20030;-73
2022/07/25 11:49:23;;;;;;;3.05;2.20;;;;;;;;;;5121396;28;20059;-72
2022/07/25 11:51:49;;;;;;;4.00;2.15;;;;;;;;;;5117013;28;20023;-74
2022/07/25 11:54:15;;;;;;;4.20;1.40;;;;;;;;;;5120530;28;20020;-73
2022/07/25 11:56:42;;;;;;;3.10;1.30;;;;;;;;;;5121469;28;20023;-73
2022/07/25 11:59:08;;;;;;;3.25;1.35;;;;;;;;;;5114382;28;20027;-73
2022/07/25 12:01:40;;;;;;;3.45;1.20;;;;;;;;;;5120947;28;20087;-73
2022/07/25 12:04:10;;;;;;;2.00;1.20;;;;;;;;;;5120653;28;20023;-73
2022/07/25 12:06:36;;;;;;;2.80;1.20;;;;;;;;;;5121178;28;20210;-73
2022/07/25 12:09:15;;;;;;;2.30;1.30;;;;;;;;;;5120685;28;20023;-73
2022/07/25 12:11:41;;;;;;;2.28;1.30;;;;;;;;;;5109555;28;20322;-74
2022/07/25 12:14:06;;;;;;;2.30;1.20;;;;;;;;;;5120819;28;20023;-72
2022/07/25 12:16:32;;;;;;;5.18;1.42;;;;;;;;;;5122024;28;20027;-72
2022/07/25 12:18:58;;;;;;;2.88;1.30;;;;;;;;;;5125149;28;20091;-73
2022/07/25 12:21:24;;;;;;;3.42;1.20;;;;;;;;;;5122129;28;20096;-72
2022/07/25 12:23:49;;;;;;;3.08;1.30;;;;;;;;;;5124969;28;20415;-72
2022/07/25 12:26:14;;;;;;;4.15;1.40;;;;;;;;;;5124831;28;20019;-73
2022/07/25 12:28:40;;;;;;;5.05;1.30;;;;;;;;;;5106643;28;20076;-72
2022/07/25 12:31:06;;;;;;;2.70;1.38;;;;;;;;;;5124821;28;20034;-72
2022/07/25 12:33:31;;;;;;;2.33;1.40;;;;;;;;;;5120108;28;20016;-73
2022/07/25 12:35:58;;;;;;;3.08;1.50;;;;;;;;;;5123193;28;20319;-74
2022/07/25 12:38:24;;;;;;;3.10;1.40;;;;;;;;;;5124385;28;20265;-72
2022/07/25 12:40:49;;;;;;;5.35;1.52;;;;;;;;;;5106291;28;20067;-72
2022/07/25 12:43:14;;;;;;;3.78;1.50;;;;;;;;;;5124638;28;20020;-72
2022/07/25 12:45:41;;;;;;;7.25;1.42;;;;;;;;;;5124378;28;20015;-73
2022/07/25 12:48:07;;;;;;;4.95;1.60;;;;;;;;;;5097267;28;20316;-72
2022/07/25 12:50:33;;;;;;;5.60;1.50;;;;;;;;;;5124422;28;20237;-73
2022/07/25 12:52:58;;;;;;;5.32;1.60;;;;;;;;;;5124259;28;20242;-72
2022/07/25 12:55:24;;;;;;;3.38;1.50;;;;;;;;;;5123915;28;20085;-73
2022/07/25 12:57:50;;;;;;;2.60;1.40;;;;;;;;;;5124678;28;20189;-72
2022/07/25 13:00:19;;;;;;;4.10;1.50;;;;;;;;;;5117405;28;20024;-73
2022/07/25 13:02:45;;;;;;;3.55;1.45;;;;;;;;;;5124796;28;20252;-72
2022/07/25 13:05:10;;;;;;;5.90;1.50;;;;;;;;;;5117496;28;20020;-74
2022/07/25 13:07:36;;;;;;;3.17;1.45;;;;;;;;;;5123807;28;20029;-73
2022/07/25 13:10:03;;;;;;;3.05;1.67;;;;;;;;;;5124176;28;20051;-73
2022/07/25 13:12:29;;;;;;;3.78;1.40;;;;;;;;;;5124084;28;20090;-73
2022/07/25 13:14:54;;;;;;;6.57;1.60;;;;;;;;;;5123724;28;20338;-73
2022/07/25 13:17:20;;;;;;;2.85;1.50;;;;;;;;;;5124194;28;20031;-73
2022/07/25 13:19:45;;;;;;;3.90;1.38;;;;;;;;;;5122127;28;20026;-73
2022/07/25 13:22:11;;;;;;;4.63;1.40;;;;;;;;;;5123538;28;20028;-73
2022/07/25 13:24:38;;;;;;;3.67;1.50;;;;;;;;;;5095939;28;20028;-73
2022/07/25 13:27:04;;;;;;;2.72;1.38;;;;;;;;;;5124073;28;20083;-73
2022/07/25 13:29:30;;;;;;;3.40;1.38;;;;;;;;;;5122592;28;20069;-73
2022/07/25 13:31:55;;;;;;;3.25;1.30;;;;;;;;;;5123692;28;20020;-73
2022/07/25 13:34:20;;;;;;;4.68;1.50;;;;;;;;;;5117107;28;20056;-73
2022/07/25 13:36:46;;;;;;;3.72;1.52;;;;;;;;;;5123302;28;20020;-73
2022/07/25 13:39:12;;;;;;;2.20;1.40;;;;;;;;;;5123514;28;20019;-73
2022/07/25 13:41:38;;;;;;;3.65;1.40;;;;;;;;;;5123405;28;20027;-74
2022/07/25 13:44:03;;;;;;;2.10;1.40;;;;;;;;;;5123276;28;20030;-74
2022/07/25 13:46:30;;;;;;;4.00;1.50;;;;;;;;;;5123675;28;20035;-73
2022/07/25 13:48:55;;;;;;;3.70;1.50;;;;;;;;;;5122897;28;20093;-73
2022/07/25 13:51:20;;;;;;;3.40;1.52;;;;;;;;;;5123339;28;20023;-73
2022/07/25 13:53:46;;;;;;;3.33;1.42;;;;;;;;;;5122762;28;20315;-73
2022/07/25 13:56:14;;;;;;;5.20;1.77;;;;;;;;;;5123325;28;20036;-73
2022/07/25 13:58:40;;;;;;;3.78;1.80;;;;;;;;;;5123398;28;20024;-73
2022/07/25 14:01:07;;;;;;;6.95;1.60;;;;;;;;;;5104736;28;20011;-73
2022/07/25 14:03:33;;;;;;;4.22;1.60;;;;;;;;;;5123478;28;20027;-74
2022/07/25 14:05:58;;;;;;;6.50;1.67;;;;;;;;;;5116389;28;20136;-73
2022/07/25 14:08:25;;;;;;;3.60;1.65;;;;;;;;;;5123194;28;20324;-72
2022/07/25 14:10:51;;;;;;;3.78;1.40;;;;;;;;;;5122749;28;20024;-73
2022/07/25 14:13:16;;;;;;;3.63;1.50;;;;;;;;;;5092439;28;20054;-73
2022/07/25 14:15:41;;;;;;;2.40;1.35;;;;;;;;;;5122657;28;20145;-73
2022/07/25 14:18:08;;;;;;;2.80;1.40;;;;;;;;;;5122766;28;20212;-74
2022/07/25 14:20:34;;;;;;;4.32;1.60;;;;;;;;;;5122443;28;20124;-73
2022/07/25 14:22:59;;;;;;;3.50;1.58;;;;;;;;;;5122457;28;20052;-73
2022/07/25 14:25:24;;;;;;;3.42;1.60;;;;;;;;;;5122473;28;20268;-73
2022/07/25 14:27:50;;;;;;;2.92;1.20;;;;;;;;;;5122840;28;20016;-73
2022/07/25 14:30:15;;;;;;;4.03;1.40;;;;;;;;;;5090329;28;20143;-73
2022/07/25 14:32:40;;;;;;;4.97;1.40;;;;;;;;;;5120452;28;20242;-72
2022/07/25 14:35:06;;;;;;;3.03;1.30;;;;;;;;;;5118452;28;20137;-73
2022/07/25 14:37:32;;;;;;;5.47;1.38;;;;;;;;;;5119630;28;20300;-73
2022/07/25 14:39:58;;;;;;;3.55;1.30;;;;;;;;;;5090488;28;20020;-73
2022/07/25 14:42:24;;;;;;;5.13;1.50;;;;;;;;;;5122378;28;20027;-73